createdAt,value
2022-10-15T00:02:36.110Z,4
2022-10-15T00:08:46.813Z,4
2022-10-15T00:14:57.447Z,3
2022-10-15T00:21:08.126Z,3
2022-10-15T00:27:10.685Z,3
2022-10-15T00:33:21.242Z,3
2022-10-15T00:39:31.916Z,4
2022-10-15T00:45:42.619Z,3
2022-10-15T00:51:53.299Z,4
2022-10-15T00:58:04.013Z,4
2022-10-15T01:04:14.626Z,5
2022-10-15T01:10:25.263Z,3
2022-10-15T01:16:35.941Z,3
2022-10-15T01:23:52.577Z,3
2022-10-15T01:30:03.188Z,4
2022-10-15T01:36:13.856Z,3
2022-10-15T01:41:26.831Z,4
2022-10-15T01:47:37.444Z,4
2022-10-15T01:53:48.142Z,4
2022-10-15T01:59:58.813Z,3
2022-10-15T02:06:17.679Z,4
2022-10-15T02:12:28.291Z,4
2022-10-15T02:18:39.024Z,5
2022-10-15T02:24:41.465Z,5
2022-10-15T02:30:52.119Z,4
2022-10-15T02:37:02.860Z,4
2022-10-15T02:43:13.439Z,5
2022-10-15T02:49:24.124Z,5
2022-10-15T02:55:34.810Z,3
2022-10-15T03:01:45.436Z,4
2022-10-15T03:07:56.136Z,4
2022-10-15T03:14:06.794Z,3
2022-10-15T03:20:17.443Z,5
2022-10-15T03:27:34.044Z,5
2022-10-15T03:33:44.771Z,4
2022-10-15T03:39:55.376Z,2
2022-10-15T03:46:06.095Z,4
2022-10-15T03:52:16.772Z,4
2022-10-15T03:58:27.387Z,5
2022-10-15T04:04:38.036Z,4
2022-10-15T04:09:50.983Z,3
2022-10-15T04:16:01.660Z,3
2022-10-15T04:22:12.294Z,4
2022-10-15T04:28:14.792Z,3
2022-10-15T04:34:25.418Z,4
2022-10-15T04:40:36.137Z,4
2022-10-15T04:46:46.795Z,3
2022-10-15T04:52:57.437Z,3
2022-10-15T04:59:08.116Z,4
2022-10-15T05:05:18.790Z,3
2022-10-15T05:11:29.449Z,2
2022-10-15T05:17:40.265Z,3
2022-10-15T05:23:50.812Z,4
2022-10-15T05:29:53.249Z,5
2022-10-15T05:36:03.902Z,3
2022-10-15T05:42:14.626Z,3
2022-10-15T05:48:25.293Z,3
2022-10-15T05:54:35.902Z,4
2022-10-15T06:00:46.614Z,5
2022-10-15T06:06:57.229Z,2
2022-10-15T06:13:07.979Z,3
2022-10-15T06:18:12.674Z,4
2022-10-15T06:24:23.293Z,3
2022-10-15T06:30:25.760Z,2
2022-10-15T06:36:36.500Z,3
2022-10-15T06:41:49.367Z,2
2022-10-15T06:48:00.014Z,3
2022-10-15T06:54:10.711Z,3
2022-10-15T07:00:21.390Z,3
2022-10-15T07:06:32.036Z,5
2022-10-15T07:12:42.727Z,4
2022-10-15T07:18:53.370Z,3
2022-10-15T07:25:04.037Z,2
2022-10-15T07:31:06.529Z,4
2022-10-15T07:37:17.170Z,2
2022-10-15T07:43:27.848Z,3
2022-10-15T07:49:38.541Z,3
2022-10-15T07:55:49.183Z,4
2022-10-15T08:01:59.840Z,3
2022-10-15T08:08:10.543Z,5
2022-10-15T08:14:21.167Z,4
2022-10-15T08:20:31.849Z,3
2022-10-15T08:27:48.479Z,4
2022-10-15T08:33:59.131Z,3
2022-10-15T08:40:09.803Z,2
2022-10-15T08:46:20.464Z,2
2022-10-15T08:52:31.105Z,2
2022-10-15T08:58:41.770Z,4
2022-10-15T09:04:52.442Z,3
2022-10-15T09:10:05.360Z,3
2022-10-15T09:16:16.025Z,2
2022-10-15T09:22:26.717Z,3
2022-10-15T09:28:29.256Z,3
2022-10-15T09:34:39.812Z,2
2022-10-15T09:40:50.542Z,4
2022-10-15T09:47:01.179Z,2
2022-10-15T09:53:11.847Z,4
2022-10-15T09:59:22.575Z,2
2022-10-15T10:05:33.186Z,4
2022-10-15T10:11:43.825Z,3
2022-10-15T10:17:54.569Z,3
2022-10-15T10:22:59.272Z,3
2022-10-15T10:29:22.159Z,3
2022-10-15T10:35:12.392Z,3
2022-10-15T10:41:23.033Z,6
2022-10-15T10:47:33.709Z,9
2022-10-15T10:53:44.396Z,5
2022-10-15T10:59:55.047Z,4
2022-10-15T11:06:05.694Z,7
2022-10-15T11:12:16.389Z,7
2022-10-15T11:18:27.030Z,6
2022-10-15T11:24:48.424Z,10
2022-10-15T11:32:10.207Z,9
2022-10-15T11:38:05.131Z,9
2022-10-15T11:43:17.900Z,8
2022-10-15T11:49:28.682Z,12
2022-10-15T11:55:39.228Z,17
2022-10-15T12:01:49.899Z,14
2022-10-15T12:08:00.606Z,8
2022-10-15T12:14:11.219Z,10
2022-10-15T12:20:21.900Z,14
2022-10-15T12:26:32.618Z,13
2022-10-15T12:32:35.062Z,18
2022-10-15T12:38:45.705Z,16
2022-10-15T12:44:56.428Z,11
2022-10-15T12:51:07.043Z,15
2022-10-15T12:57:17.716Z,11
2022-10-15T13:03:28.384Z,11
2022-10-15T13:09:39.037Z,8
2022-10-15T13:15:53.163Z,14
2022-10-15T13:22:00.392Z,10
2022-10-15T13:28:15.326Z,19
2022-10-15T13:34:13.519Z,10
2022-10-15T13:40:24.225Z,16
2022-10-15T13:46:34.843Z,12
2022-10-15T13:52:45.520Z,11
2022-10-15T13:58:56.227Z,10
2022-10-15T14:05:06.856Z,14
2022-10-15T14:10:19.782Z,22
2022-10-15T14:16:30.463Z,15
2022-10-15T14:22:41.096Z,18
2022-10-15T14:28:51.955Z,17
2022-10-15T14:35:04.133Z,21
2022-10-15T14:41:13.105Z,16
2022-10-15T14:47:24.184Z,11
2022-10-15T14:53:34.473Z,10
2022-10-15T14:59:45.097Z,12
2022-10-15T15:05:55.777Z,18
2022-10-15T15:12:06.474Z,15
2022-10-15T15:18:17.101Z,18
2022-10-15T15:24:27.804Z,17
2022-10-15T15:31:44.394Z,15
2022-10-15T15:37:55.062Z,11
2022-10-15T15:44:05.717Z,14
2022-10-15T15:50:16.407Z,9
2022-10-15T15:56:27.043Z,13
2022-10-15T16:02:37.692Z,13
2022-10-15T16:08:48.456Z,22
2022-10-15T16:21:09.743Z,15
2022-10-15T16:27:20.388Z,15
2022-10-15T16:34:36.989Z,10
2022-10-15T16:39:49.912Z,10
2022-10-15T16:46:00.580Z,4
2022-10-15T16:52:11.238Z,7
2022-10-15T16:58:21.907Z,7
2022-10-15T17:04:32.575Z,8
2022-10-15T17:10:43.261Z,17
2022-10-15T17:16:53.909Z,15
2022-10-15T17:23:04.573Z,13
2022-10-15T17:29:15.234Z,13
2022-10-15T17:35:17.721Z,11
2022-10-15T17:41:28.403Z,10
2022-10-15T17:47:39.050Z,10
2022-10-15T17:53:49.697Z,10
2022-10-15T18:00:00.496Z,5
2022-10-15T18:06:11.040Z,6
2022-10-15T18:12:21.715Z,13
2022-10-15T18:19:46.559Z,4
2022-10-15T18:25:57.217Z,5
2022-10-15T18:32:07.839Z,6
2022-10-15T18:38:10.422Z,5
2022-10-15T18:43:17.463Z,3
2022-10-15T18:49:25.719Z,4
2022-10-15T18:55:36.415Z,4
2022-10-15T19:01:47.161Z,6
2022-10-15T19:07:57.865Z,4
2022-10-15T19:13:10.640Z,5
2022-10-15T19:19:21.312Z,4
2022-10-15T19:25:31.998Z,5
2022-10-15T19:31:42.693Z,5
2022-10-15T19:37:45.127Z,9
2022-10-15T19:43:55.764Z,3
2022-10-15T19:50:06.452Z,3
2022-10-15T19:56:17.144Z,4
2022-10-15T20:02:27.771Z,3
2022-10-15T20:08:38.470Z,4
2022-10-15T20:14:49.098Z,3
2022-10-15T20:20:59.907Z,6
2022-10-15T20:27:10.458Z,5
2022-10-15T20:33:21.096Z,4
2022-10-15T20:39:23.608Z,4
2022-10-15T20:45:34.288Z,3
2022-10-15T20:51:44.899Z,5
2022-10-15T20:57:55.589Z,6
2022-10-15T21:04:06.260Z,4
2022-10-15T21:10:16.907Z,4
2022-10-15T21:16:28.580Z,4
2022-10-15T21:22:38.299Z,9
2022-10-15T21:28:49.009Z,4
2022-10-15T21:34:59.601Z,5
2022-10-15T21:40:04.427Z,3
2022-10-15T21:46:14.991Z,5
2022-10-15T21:52:25.646Z,5
2022-10-15T21:58:36.325Z,5
2022-10-15T22:04:46.954Z,4
2022-10-15T22:10:57.638Z,4
2022-10-15T22:17:08.328Z,5
2022-10-15T22:23:18.985Z,4
2022-10-15T22:29:32.960Z,4
2022-10-15T22:35:40.311Z,6
2022-10-15T22:41:42.772Z,4
2022-10-15T22:48:01.638Z,6
2022-10-15T22:54:12.340Z,5
2022-10-15T23:00:22.953Z,6
2022-10-15T23:06:33.652Z,4
2022-10-15T23:12:44.339Z,4
2022-10-15T23:18:54.962Z,5
2022-10-15T23:25:05.633Z,4
2022-10-15T23:31:16.329Z,5
2022-10-15T23:37:18.762Z,4
2022-10-15T23:43:29.456Z,4
2022-10-15T23:49:40.127Z,5
2022-10-15T23:55:50.966Z,4
